New Miami, Ohio
Current Conditions -  °F | °C
As of 12:53 PM on Saturday 20 Dec 2014 (Local Time) from KHAO Reporting Station
Overcast Overcast  
Wind Chill: 33°   Ceiling: 1800
Heat Index: 33°   Visibility: 8mi
Dew Point: 25°   Wind: 0mph
Humidity: 72%   Direction: NA
Pressure: 30.29"   Gusts: NA
Location:  39.4247°N, 84.5012°W
Report Text: KHAO 201753Z AUTO 00000KT 8SM OVC018 01/M04 A3029 RMK AO2 SLP263 T00061039 10006 21006 58007
Loading
Personal Weather Stations






























Interactive Weather Map New forecast layout! Learn more

10-Day Weather Forecast

Advertisements
Track Severe Weather on mobile